Anaconda (3U3)
Anaconda, MT
Field Elevation: 5030
Lat: 46°09.19N  Long: 112°52.07W
CTAF/Unicom Freq: 122.8000
Weather Advisories
2018-03-24   21:22 Z
Altimeter 29.69" Hg
Wind 240° @ 10 KT
Gusts 16 KT
Temperature 4° C (39° F)
Dewpoint -12° C (10° F)
Relative Humidity 30%
Density Altitude --
Condensation Altitude 13,100 feet
Wind Chill: 0° C (32° F)
Wind and Runways
Indicated Runway = 22
Headwind = 9 kt
Crosswind = 3 kt
More Info
NOAA Forecast
About Us
Belfort Instrument
FAA Disclaimer: The data displayed is for advisory purposes only and is not to be used for flight planning or operations. For official data, please call (not available) to hear the current automated AWOS voice message.
  METAR 3U3 242122Z AUTO 24010G16KT 04/M12 A2969